sensor_id;sensor_type;location;lat;lon;timestamp;temperature;humidity
16285;DHT22;8250;52.426;9.450;2022-09-30T00:01:51;11.20;99.90
16285;DHT22;8250;52.426;9.450;2022-09-30T00:04:20;11.10;99.90
16285;DHT22;8250;52.426;9.450;2022-09-30T00:06:49;11.10;99.90
16285;DHT22;8250;52.426;9.450;2022-09-30T00:09:17;11.10;99.90
16285;DHT22;8250;52.426;9.450;2022-09-30T00:11:46;11.10;99.90
16285;DHT22;8250;52.426;9.450;2022-09-30T00:14:15;11.00;99.90
16285;DHT22;8250;52.426;9.450;2022-09-30T00:16:43;11.00;99.90
16285;DHT22;8250;52.426;9.450;2022-09-30T00:19:10;11.00;99.90
16285;DHT22;8250;52.426;9.450;2022-09-30T00:21:37;11.00;99.90
16285;DHT22;8250;52.426;9.450;2022-09-30T00:24:06;11.00;99.90
16285;DHT22;8250;52.426;9.450;2022-09-30T00:26:34;11.00;99.90
16285;DHT22;8250;52.426;9.450;2022-09-30T00:29:02;11.00;99.90
16285;DHT22;8250;52.426;9.450;2022-09-30T00:31:32;11.00;99.90
16285;DHT22;8250;52.426;9.450;2022-09-30T00:33:59;11.00;99.90
16285;DHT22;8250;52.426;9.450;2022-09-30T00:36:39;11.00;99.90
16285;DHT22;8250;52.426;9.450;2022-09-30T00:39:11;11.00;99.90
16285;DHT22;8250;52.426;9.450;2022-09-30T00:41:39;11.00;99.90
16285;DHT22;8250;52.426;9.450;2022-09-30T00:44:48;11.10;99.90
16285;DHT22;8250;52.426;9.450;2022-09-30T00:47:32;11.00;99.90
16285;DHT22;8250;52.426;9.450;2022-09-30T00:50:04;11.00;99.90
16285;DHT22;8250;52.426;9.450;2022-09-30T00:52:35;11.00;99.90
16285;DHT22;8250;52.426;9.450;2022-09-30T00:55:07;11.10;99.90
16285;DHT22;8250;52.426;9.450;2022-09-30T00:57:36;11.00;99.90
16285;DHT22;8250;52.426;9.450;2022-09-30T01:00:04;11.00;99.90
16285;DHT22;8250;52.426;9.450;2022-09-30T01:02:31;11.00;99.90
16285;DHT22;8250;52.426;9.450;2022-09-30T01:04:58;10.90;99.90
16285;DHT22;8250;52.426;9.450;2022-09-30T01:07:25;11.00;99.90
16285;DHT22;8250;52.426;9.450;2022-09-30T01:09:52;11.00;99.90
16285;DHT22;8250;52.426;9.450;2022-09-30T01:12:23;10.90;99.90
16285;DHT22;8250;52.426;9.450;2022-09-30T01:14:52;10.90;99.90
16285;DHT22;8250;52.426;9.450;2022-09-30T01:17:27;10.80;99.90
16285;DHT22;8250;52.426;9.450;2022-09-30T01:23:06;10.80;99.90
16285;DHT22;8250;52.426;9.450;2022-09-30T01:25:52;10.70;99.90
16285;DHT22;8250;52.426;9.450;2022-09-30T01:28:49;10.60;99.90
16285;DHT22;8250;52.426;9.450;2022-09-30T01:31:31;10.60;99.90
16285;DHT22;8250;52.426;9.450;2022-09-30T01:34:04;10.60;99.90
16285;DHT22;8250;52.426;9.450;2022-09-30T01:36:44;10.60;99.90
16285;DHT22;8250;52.426;9.450;2022-09-30T01:39:26;10.60;99.90
16285;DHT22;8250;52.426;9.450;2022-09-30T01:42:00;10.60;99.90
16285;DHT22;8250;52.426;9.450;2022-09-30T01:44:34;10.50;99.90
16285;DHT22;8250;52.426;9.450;2022-09-30T01:47:08;10.50;99.90
16285;DHT22;8250;52.426;9.450;2022-09-30T01:49:41;10.50;99.90
16285;DHT22;8250;52.426;9.450;2022-09-30T01:52:15;10.50;99.90
16285;DHT22;8250;52.426;9.450;2022-09-30T01:54:45;10.40;99.90
16285;DHT22;8250;52.426;9.450;2022-09-30T01:57:18;10.40;99.90
16285;DHT22;8250;52.426;9.450;2022-09-30T01:59:49;10.30;99.90
16285;DHT22;8250;52.426;9.450;2022-09-30T02:02:21;10.20;99.90
16285;DHT22;8250;52.426;9.450;2022-09-30T02:04:54;10.20;99.90
16285;DHT22;8250;52.426;9.450;2022-09-30T02:07:25;10.20;99.90
16285;DHT22;8250;52.426;9.450;2022-09-30T02:09:57;10.10;99.90
16285;DHT22;8250;52.426;9.450;2022-09-30T02:12:28;10.10;99.90
16285;DHT22;8250;52.426;9.450;2022-09-30T02:15:00;10.10;99.90
16285;DHT22;8250;52.426;9.450;2022-09-30T02:17:32;10.00;99.90
16285;DHT22;8250;52.426;9.450;2022-09-30T02:20:07;10.00;99.90
16285;DHT22;8250;52.426;9.450;2022-09-30T02:22:41;10.00;99.90
16285;DHT22;8250;52.426;9.450;2022-09-30T02:25:40;10.00;99.90
16285;DHT22;8250;52.426;9.450;2022-09-30T02:28:11;9.90;99.90
16285;DHT22;8250;52.426;9.450;2022-09-30T02:30:44;9.90;99.90
16285;DHT22;8250;52.426;9.450;2022-09-30T02:33:19;9.80;99.90
16285;DHT22;8250;52.426;9.450;2022-09-30T02:35:51;9.70;99.90
16285;DHT22;8250;52.426;9.450;2022-09-30T02:38:24;9.70;99.90
16285;DHT22;8250;52.426;9.450;2022-09-30T02:40:55;9.70;99.90
16285;DHT22;8250;52.426;9.450;2022-09-30T02:43:23;9.60;99.90
16285;DHT22;8250;52.426;9.450;2022-09-30T02:46:02;9.60;99.90
16285;DHT22;8250;52.426;9.450;2022-09-30T02:48:37;9.50;99.90
16285;DHT22;8250;52.426;9.450;2022-09-30T02:51:13;9.50;99.90
16285;DHT22;8250;52.426;9.450;2022-09-30T02:53:44;9.50;99.90
16285;DHT22;8250;52.426;9.450;2022-09-30T02:56:21;9.40;99.90
16285;DHT22;8250;52.426;9.450;2022-09-30T02:58:50;9.40;99.90
16285;DHT22;8250;52.426;9.450;2022-09-30T03:01:18;9.40;99.90
16285;DHT22;8250;52.426;9.450;2022-09-30T03:03:49;9.30;99.90
16285;DHT22;8250;52.426;9.450;2022-09-30T03:06:17;9.30;99.90
16285;DHT22;8250;52.426;9.450;2022-09-30T03:08:44;9.30;99.90
16285;DHT22;8250;52.426;9.450;2022-09-30T03:11:14;9.20;99.90
16285;DHT22;8250;52.426;9.450;2022-09-30T03:14:13;9.20;99.90
16285;DHT22;8250;52.426;9.450;2022-09-30T03:17:04;9.20;99.90
16285;DHT22;8250;52.426;9.450;2022-09-30T03:19:42;9.10;99.90
16285;DHT22;8250;52.426;9.450;2022-09-30T03:22:26;9.10;99.90
16285;DHT22;8250;52.426;9.450;2022-09-30T03:25:10;9.00;99.90
16285;DHT22;8250;52.426;9.450;2022-09-30T03:27:45;9.00;99.90
16285;DHT22;8250;52.426;9.450;2022-09-30T03:30:16;9.00;99.90
16285;DHT22;8250;52.426;9.450;2022-09-30T03:32:55;9.00;99.90
16285;DHT22;8250;52.426;9.450;2022-09-30T03:35:29;9.00;99.90
16285;DHT22;8250;52.426;9.450;2022-09-30T03:38:02;8.90;99.90
16285;DHT22;8250;52.426;9.450;2022-09-30T03:40:37;8.90;99.90
16285;DHT22;8250;52.426;9.450;2022-09-30T03:43:14;8.90;99.90
16285;DHT22;8250;52.426;9.450;2022-09-30T03:45:49;8.90;99.90
16285;DHT22;8250;52.426;9.450;2022-09-30T03:48:19;8.90;99.90
16285;DHT22;8250;52.426;9.450;2022-09-30T03:50:48;8.90;99.90
16285;DHT22;8250;52.426;9.450;2022-09-30T03:53:15;8.80;99.90
16285;DHT22;8250;52.426;9.450;2022-09-30T03:55:45;8.70;99.90
16285;DHT22;8250;52.426;9.450;2022-09-30T03:58:13;8.60;99.90
16285;DHT22;8250;52.426;9.450;2022-09-30T04:00:46;8.70;99.90
16285;DHT22;8250;52.426;9.450;2022-09-30T04:03:14;8.60;99.90
16285;DHT22;8250;52.426;9.450;2022-09-30T04:05:41;8.70;99.90
16285;DHT22;8250;52.426;9.450;2022-09-30T04:08:09;8.70;99.90
16285;DHT22;8250;52.426;9.450;2022-09-30T04:10:38;8.70;99.90
16285;DHT22;8250;52.426;9.450;2022-09-30T04:13:06;8.80;99.90
16285;DHT22;8250;52.426;9.450;2022-09-30T04:15:33;8.90;99.90
16285;DHT22;8250;52.426;9.450;2022-09-30T04:18:00;8.80;99.90
16285;DHT22;8250;52.426;9.450;2022-09-30T04:20:28;8.80;99.90
16285;DHT22;8250;52.426;9.450;2022-09-30T04:22:58;8.80;99.90
16285;DHT22;8250;52.426;9.450;2022-09-30T04:25:27;8.80;99.90
16285;DHT22;8250;52.426;9.450;2022-09-30T04:27:55;8.80;99.90
16285;DHT22;8250;52.426;9.450;2022-09-30T04:30:21;8.90;99.90
16285;DHT22;8250;52.426;9.450;2022-09-30T04:32:48;8.70;99.90
16285;DHT22;8250;52.426;9.450;2022-09-30T04:35:15;8.70;99.90
16285;DHT22;8250;52.426;9.450;2022-09-30T04:37:42;8.70;99.90
16285;DHT22;8250;52.426;9.450;2022-09-30T04:40:10;8.70;99.90
16285;DHT22;8250;52.426;9.450;2022-09-30T04:42:39;8.60;99.90
16285;DHT22;8250;52.426;9.450;2022-09-30T04:45:08;8.60;99.90
16285;DHT22;8250;52.426;9.450;2022-09-30T04:47:35;8.60;99.90
16285;DHT22;8250;52.426;9.450;2022-09-30T04:50:04;8.60;99.90
16285;DHT22;8250;52.426;9.450;2022-09-30T04:52:31;8.70;99.90
16285;DHT22;8250;52.426;9.450;2022-09-30T04:55:19;8.60;99.90
16285;DHT22;8250;52.426;9.450;2022-09-30T04:57:48;8.60;99.90
16285;DHT22;8250;52.426;9.450;2022-09-30T05:00:15;8.50;99.90
16285;DHT22;8250;52.426;9.450;2022-09-30T05:02:42;8.60;99.90
16285;DHT22;8250;52.426;9.450;2022-09-30T05:05:09;8.60;99.90
16285;DHT22;8250;52.426;9.450;2022-09-30T05:07:36;8.60;99.90
16285;DHT22;8250;52.426;9.450;2022-09-30T05:10:04;8.50;99.90
16285;DHT22;8250;52.426;9.450;2022-09-30T05:12:32;8.60;99.90
16285;DHT22;8250;52.426;9.450;2022-09-30T05:15:00;8.60;99.90
16285;DHT22;8250;52.426;9.450;2022-09-30T05:17:28;8.50;99.90
16285;DHT22;8250;52.426;9.450;2022-09-30T05:19:56;8.50;99.90
16285;DHT22;8250;52.426;9.450;2022-09-30T05:22:23;8.50;99.90
16285;DHT22;8250;52.426;9.450;2022-09-30T05:24:50;8.40;99.90
16285;DHT22;8250;52.426;9.450;2022-09-30T05:27:17;8.50;99.90
16285;DHT22;8250;52.426;9.450;2022-09-30T05:29:44;8.50;99.90
16285;DHT22;8250;52.426;9.450;2022-09-30T05:32:12;8.50;99.90
16285;DHT22;8250;52.426;9.450;2022-09-30T05:34:39;8.50;99.90
16285;DHT22;8250;52.426;9.450;2022-09-30T05:37:15;8.50;99.90
16285;DHT22;8250;52.426;9.450;2022-09-30T05:39:42;8.50;99.90
16285;DHT22;8250;52.426;9.450;2022-09-30T05:42:09;8.50;99.90
16285;DHT22;8250;52.426;9.450;2022-09-30T05:44:36;8.50;99.90
16285;DHT22;8250;52.426;9.450;2022-09-30T05:47:03;8.50;99.90
16285;DHT22;8250;52.426;9.450;2022-09-30T05:49:31;8.60;99.90
16285;DHT22;8250;52.426;9.450;2022-09-30T05:51:59;8.70;99.90
16285;DHT22;8250;52.426;9.450;2022-09-30T05:54:26;8.60;99.90
16285;DHT22;8250;52.426;9.450;2022-09-30T05:56:53;8.60;99.90
16285;DHT22;8250;52.426;9.450;2022-09-30T05:59:20;8.70;99.90
16285;DHT22;8250;52.426;9.450;2022-09-30T06:01:46;8.70;99.90
16285;DHT22;8250;52.426;9.450;2022-09-30T06:04:13;8.70;99.90
16285;DHT22;8250;52.426;9.450;2022-09-30T06:06:42;8.70;99.90
16285;DHT22;8250;52.426;9.450;2022-09-30T06:09:08;8.80;99.90
16285;DHT22;8250;52.426;9.450;2022-09-30T06:11:35;8.80;99.90
16285;DHT22;8250;52.426;9.450;2022-09-30T06:14:02;9.00;99.90
16285;DHT22;8250;52.426;9.450;2022-09-30T06:16:29;9.00;99.90
16285;DHT22;8250;52.426;9.450;2022-09-30T06:18:57;9.10;99.90
16285;DHT22;8250;52.426;9.450;2022-09-30T06:21:24;9.20;99.90
16285;DHT22;8250;52.426;9.450;2022-09-30T06:23:53;9.20;99.90
16285;DHT22;8250;52.426;9.450;2022-09-30T06:26:19;9.30;99.90
16285;DHT22;8250;52.426;9.450;2022-09-30T06:28:46;9.40;99.90
16285;DHT22;8250;52.426;9.450;2022-09-30T06:31:13;9.50;99.90
16285;DHT22;8250;52.426;9.450;2022-09-30T06:33:40;9.50;99.90
16285;DHT22;8250;52.426;9.450;2022-09-30T06:36:07;9.70;99.90
16285;DHT22;8250;52.426;9.450;2022-09-30T06:38:36;9.70;99.90
16285;DHT22;8250;52.426;9.450;2022-09-30T06:41:05;9.80;99.90
16285;DHT22;8250;52.426;9.450;2022-09-30T06:43:32;9.90;99.90
16285;DHT22;8250;52.426;9.450;2022-09-30T06:45:59;10.10;99.90
16285;DHT22;8250;52.426;9.450;2022-09-30T06:48:26;10.10;99.90
16285;DHT22;8250;52.426;9.450;2022-09-30T06:50:56;10.30;99.90
16285;DHT22;8250;52.426;9.450;2022-09-30T06:53:23;10.40;99.90
16285;DHT22;8250;52.426;9.450;2022-09-30T06:55:54;10.50;99.90
16285;DHT22;8250;52.426;9.450;2022-09-30T06:58:23;10.50;99.90
16285;DHT22;8250;52.426;9.450;2022-09-30T07:00:56;10.60;99.90
16285;DHT22;8250;52.426;9.450;2022-09-30T07:03:26;10.80;99.90
16285;DHT22;8250;52.426;9.450;2022-09-30T07:05:55;10.70;99.90
16285;DHT22;8250;52.426;9.450;2022-09-30T07:08:23;10.90;99.90
16285;DHT22;8250;52.426;9.450;2022-09-30T07:10:53;11.00;99.90
16285;DHT22;8250;52.426;9.450;2022-09-30T07:13:20;11.10;99.90
16285;DHT22;8250;52.426;9.450;2022-09-30T07:15:48;11.30;99.90
16285;DHT22;8250;52.426;9.450;2022-09-30T07:18:18;12.20;99.90
16285;DHT22;8250;52.426;9.450;2022-09-30T07:20:49;13.70;99.90
16285;DHT22;8250;52.426;9.450;2022-09-30T07:23:16;15.30;99.90
16285;DHT22;8250;52.426;9.450;2022-09-30T07:25:51;16.60;99.90
16285;DHT22;8250;52.426;9.450;2022-09-30T07:28:18;18.20;99.90
16285;DHT22;8250;52.426;9.450;2022-09-30T07:30:45;19.20;99.90
16285;DHT22;8250;52.426;9.450;2022-09-30T07:33:14;20.10;99.90
16285;DHT22;8250;52.426;9.450;2022-09-30T07:35:49;21.10;99.90
16285;DHT22;8250;52.426;9.450;2022-09-30T07:38:17;21.90;99.90
16285;DHT22;8250;52.426;9.450;2022-09-30T07:40:55;22.30;95.80
16285;DHT22;8250;52.426;9.450;2022-09-30T07:43:22;22.60;94.60
16285;DHT22;8250;52.426;9.450;2022-09-30T07:45:49;22.90;92.50
16285;DHT22;8250;52.426;9.450;2022-09-30T07:48:21;23.10;91.10
16285;DHT22;8250;52.426;9.450;2022-09-30T07:51:10;23.70;91.40
16285;DHT22;8250;52.426;9.450;2022-09-30T07:53:38;24.00;88.10
16285;DHT22;8250;52.426;9.450;2022-09-30T07:56:35;24.30;84.00
16285;DHT22;8250;52.426;9.450;2022-09-30T07:59:26;24.30;83.10
16285;DHT22;8250;52.426;9.450;2022-09-30T08:01:53;24.70;83.20
16285;DHT22;8250;52.426;9.450;2022-09-30T08:04:23;25.10;78.20
16285;DHT22;8250;52.426;9.450;2022-09-30T08:06:52;25.10;77.10
16285;DHT22;8250;52.426;9.450;2022-09-30T08:09:21;25.10;76.10
16285;DHT22;8250;52.426;9.450;2022-09-30T08:11:49;25.40;75.90
16285;DHT22;8250;52.426;9.450;2022-09-30T08:14:18;25.20;74.60
16285;DHT22;8250;52.426;9.450;2022-09-30T08:16:45;24.10;74.90
16285;DHT22;8250;52.426;9.450;2022-09-30T08:19:14;23.10;79.70
16285;DHT22;8250;52.426;9.450;2022-09-30T08:21:43;22.00;83.20
16285;DHT22;8250;52.426;9.450;2022-09-30T08:24:10;21.10;87.40
16285;DHT22;8250;52.426;9.450;2022-09-30T08:26:38;20.40;91.10
16285;DHT22;8250;52.426;9.450;2022-09-30T08:32:07;19.90;93.00
16285;DHT22;8250;52.426;9.450;2022-09-30T08:34:43;19.30;94.20
16285;DHT22;8250;52.426;9.450;2022-09-30T08:37:12;18.80;96.30
16285;DHT22;8250;52.426;9.450;2022-09-30T08:39:38;18.30;97.10
16285;DHT22;8250;52.426;9.450;2022-09-30T08:42:23;17.70;98.70
16285;DHT22;8250;52.426;9.450;2022-09-30T08:45:02;17.30;99.90
16285;DHT22;8250;52.426;9.450;2022-09-30T08:47:39;16.80;99.90
16285;DHT22;8250;52.426;9.450;2022-09-30T08:50:15;16.50;99.90
16285;DHT22;8250;52.426;9.450;2022-09-30T08:52:48;16.30;99.90
16285;DHT22;8250;52.426;9.450;2022-09-30T08:55:20;16.20;99.90
16285;DHT22;8250;52.426;9.450;2022-09-30T08:57:49;16.20;99.90
16285;DHT22;8250;52.426;9.450;2022-09-30T09:00:18;16.00;99.90
16285;DHT22;8250;52.426;9.450;2022-09-30T09:02:49;16.20;99.90
16285;DHT22;8250;52.426;9.450;2022-09-30T09:05:25;16.40;99.90
16285;DHT22;8250;52.426;9.450;2022-09-30T09:08:00;16.60;99.90
16285;DHT22;8250;52.426;9.450;2022-09-30T09:10:36;16.70;99.90
16285;DHT22;8250;52.426;9.450;2022-09-30T09:13:15;16.60;99.90
16285;DHT22;8250;52.426;9.450;2022-09-30T09:15:49;16.50;99.90
16285;DHT22;8250;52.426;9.450;2022-09-30T09:18:33;16.40;99.90
16285;DHT22;8250;52.426;9.450;2022-09-30T09:21:16;16.20;99.90
16285;DHT22;8250;52.426;9.450;2022-09-30T09:23:48;16.00;99.90
16285;DHT22;8250;52.426;9.450;2022-09-30T09:26:16;16.00;99.90
16285;DHT22;8250;52.426;9.450;2022-09-30T09:28:55;15.90;99.90
16285;DHT22;8250;52.426;9.450;2022-09-30T09:31:25;15.90;99.90
16285;DHT22;8250;52.426;9.450;2022-09-30T09:33:55;15.90;99.90
16285;DHT22;8250;52.426;9.450;2022-09-30T09:36:34;15.80;99.90
16285;DHT22;8250;52.426;9.450;2022-09-30T09:39:18;15.80;99.90
16285;DHT22;8250;52.426;9.450;2022-09-30T09:41:51;15.90;99.90
16285;DHT22;8250;52.426;9.450;2022-09-30T09:44:25;15.80;99.90
16285;DHT22;8250;52.426;9.450;2022-09-30T09:46:59;15.80;99.90
16285;DHT22;8250;52.426;9.450;2022-09-30T09:49:31;15.90;99.90
16285;DHT22;8250;52.426;9.450;2022-09-30T09:52:24;15.80;99.90
16285;DHT22;8250;52.426;9.450;2022-09-30T09:54:56;15.80;99.90
16285;DHT22;8250;52.426;9.450;2022-09-30T09:57:26;15.80;99.90
16285;DHT22;8250;52.426;9.450;2022-09-30T10:00:05;15.90;99.90
16285;DHT22;8250;52.426;9.450;2022-09-30T10:03:01;16.00;99.90
16285;DHT22;8250;52.426;9.450;2022-09-30T10:05:30;16.00;99.90
16285;DHT22;8250;52.426;9.450;2022-09-30T10:08:13;16.10;99.90
16285;DHT22;8250;52.426;9.450;2022-09-30T10:10:47;16.10;99.90
16285;DHT22;8250;52.426;9.450;2022-09-30T10:13:20;16.10;99.90
16285;DHT22;8250;52.426;9.450;2022-09-30T10:15:48;16.10;99.90
16285;DHT22;8250;52.426;9.450;2022-09-30T10:18:19;16.10;99.90
16285;DHT22;8250;52.426;9.450;2022-09-30T10:20:51;16.20;99.90
16285;DHT22;8250;52.426;9.450;2022-09-30T10:23:20;16.20;99.90
16285;DHT22;8250;52.426;9.450;2022-09-30T10:25:59;16.20;99.90
16285;DHT22;8250;52.426;9.450;2022-09-30T10:28:30;16.30;99.90
16285;DHT22;8250;52.426;9.450;2022-09-30T10:31:02;16.30;99.90
16285;DHT22;8250;52.426;9.450;2022-09-30T10:33:33;16.40;99.90
16285;DHT22;8250;52.426;9.450;2022-09-30T10:36:15;16.40;99.90
16285;DHT22;8250;52.426;9.450;2022-09-30T10:38:55;16.50;99.90
16285;DHT22;8250;52.426;9.450;2022-09-30T10:41:26;16.50;99.90
16285;DHT22;8250;52.426;9.450;2022-09-30T10:43:55;16.60;99.90
16285;DHT22;8250;52.426;9.450;2022-09-30T10:46:24;16.70;99.90
16285;DHT22;8250;52.426;9.450;2022-09-30T10:48:52;16.80;99.90
16285;DHT22;8250;52.426;9.450;2022-09-30T10:51:24;17.00;99.90
16285;DHT22;8250;52.426;9.450;2022-09-30T10:53:51;16.90;99.90
16285;DHT22;8250;52.426;9.450;2022-09-30T10:56:35;16.80;99.90
16285;DHT22;8250;52.426;9.450;2022-09-30T10:59:04;16.90;99.90
16285;DHT22;8250;52.426;9.450;2022-09-30T11:01:42;16.80;99.90
16285;DHT22;8250;52.426;9.450;2022-09-30T11:04:24;16.90;99.90
16285;DHT22;8250;52.426;9.450;2022-09-30T11:06:57;16.90;99.90
16285;DHT22;8250;52.426;9.450;2022-09-30T11:09:33;16.80;99.90
16285;DHT22;8250;52.426;9.450;2022-09-30T11:12:10;16.60;99.90
16285;DHT22;8250;52.426;9.450;2022-09-30T11:14:44;16.80;99.90
16285;DHT22;8250;52.426;9.450;2022-09-30T11:17:24;16.80;99.90
16285;DHT22;8250;52.426;9.450;2022-09-30T11:20:02;17.00;99.90
16285;DHT22;8250;52.426;9.450;2022-09-30T11:22:38;17.10;99.90
16285;DHT22;8250;52.426;9.450;2022-09-30T11:25:11;17.10;99.90
16285;DHT22;8250;52.426;9.450;2022-09-30T11:27:52;16.90;99.90
16285;DHT22;8250;52.426;9.450;2022-09-30T11:30:26;17.00;99.90
16285;DHT22;8250;52.426;9.450;2022-09-30T11:33:05;17.10;99.90
16285;DHT22;8250;52.426;9.450;2022-09-30T11:35:45;17.10;99.90
16285;DHT22;8250;52.426;9.450;2022-09-30T11:38:25;17.10;99.90
16285;DHT22;8250;52.426;9.450;2022-09-30T11:41:01;17.20;99.90
16285;DHT22;8250;52.426;9.450;2022-09-30T11:43:38;17.00;99.90
16285;DHT22;8250;52.426;9.450;2022-09-30T11:46:28;17.20;99.90
16285;DHT22;8250;52.426;9.450;2022-09-30T11:52:08;18.30;99.90
16285;DHT22;8250;52.426;9.450;2022-09-30T11:54:50;19.00;99.90
16285;DHT22;8250;52.426;9.450;2022-09-30T11:57:27;19.40;98.60
16285;DHT22;8250;52.426;9.450;2022-09-30T12:00:03;19.90;97.20
16285;DHT22;8250;52.426;9.450;2022-09-30T12:02:35;20.20;95.90
16285;DHT22;8250;52.426;9.450;2022-09-30T12:05:06;20.40;95.10
16285;DHT22;8250;52.426;9.450;2022-09-30T12:07:39;20.20;94.70
16285;DHT22;8250;52.426;9.450;2022-09-30T12:10:17;20.00;95.20
16285;DHT22;8250;52.426;9.450;2022-09-30T12:12:45;19.80;95.60
16285;DHT22;8250;52.426;9.450;2022-09-30T12:15:17;19.50;95.30
16285;DHT22;8250;52.426;9.450;2022-09-30T12:17:48;19.30;95.90
16285;DHT22;8250;52.426;9.450;2022-09-30T12:20:19;19.20;96.20
16285;DHT22;8250;52.426;9.450;2022-09-30T12:23:10;19.10;96.30
16285;DHT22;8250;52.426;9.450;2022-09-30T12:25:41;19.10;98.40
16285;DHT22;8250;52.426;9.450;2022-09-30T12:28:19;19.00;97.10
16285;DHT22;8250;52.426;9.450;2022-09-30T12:31:21;18.90;96.80
16285;DHT22;8250;52.426;9.450;2022-09-30T12:34:03;18.60;97.50
16285;DHT22;8250;52.426;9.450;2022-09-30T12:36:53;18.50;98.60
16285;DHT22;8250;52.426;9.450;2022-09-30T12:39:49;18.50;98.90
16285;DHT22;8250;52.426;9.450;2022-09-30T12:42:51;18.50;98.80
16285;DHT22;8250;52.426;9.450;2022-09-30T12:48:23;18.00;98.40
16285;DHT22;8250;52.426;9.450;2022-09-30T12:50:54;17.80;99.20
16285;DHT22;8250;52.426;9.450;2022-09-30T12:53:25;17.80;99.20
16285;DHT22;8250;52.426;9.450;2022-09-30T12:55:54;17.80;98.30
16285;DHT22;8250;52.426;9.450;2022-09-30T12:58:31;17.80;98.20
16285;DHT22;8250;52.426;9.450;2022-09-30T13:01:03;17.90;98.50
16285;DHT22;8250;52.426;9.450;2022-09-30T13:03:47;18.00;98.30
16285;DHT22;8250;52.426;9.450;2022-09-30T13:06:15;17.90;98.70
16285;DHT22;8250;52.426;9.450;2022-09-30T13:08:45;17.80;98.40
16285;DHT22;8250;52.426;9.450;2022-09-30T13:11:30;17.60;98.40
16285;DHT22;8250;52.426;9.450;2022-09-30T13:14:03;17.70;98.90
16285;DHT22;8250;52.426;9.450;2022-09-30T13:16:57;17.80;98.60
16285;DHT22;8250;52.426;9.450;2022-09-30T13:19:34;17.80;99.00
16285;DHT22;8250;52.426;9.450;2022-09-30T13:25:18;17.60;99.40
16285;DHT22;8250;52.426;9.450;2022-09-30T13:27:47;17.50;99.60
16285;DHT22;8250;52.426;9.450;2022-09-30T13:30:36;17.40;99.90
16285;DHT22;8250;52.426;9.450;2022-09-30T13:33:27;17.40;98.70
16285;DHT22;8250;52.426;9.450;2022-09-30T13:35:57;17.30;99.30
16285;DHT22;8250;52.426;9.450;2022-09-30T13:38:35;17.30;99.50
16285;DHT22;8250;52.426;9.450;2022-09-30T13:41:07;17.20;99.70
16285;DHT22;8250;52.426;9.450;2022-09-30T13:43:42;17.10;99.40
16285;DHT22;8250;52.426;9.450;2022-09-30T13:46:21;17.20;99.80
16285;DHT22;8250;52.426;9.450;2022-09-30T13:48:52;17.30;99.90
16285;DHT22;8250;52.426;9.450;2022-09-30T13:51:21;17.40;98.40
16285;DHT22;8250;52.426;9.450;2022-09-30T13:53:52;17.50;98.20
16285;DHT22;8250;52.426;9.450;2022-09-30T13:56:21;17.70;97.70
16285;DHT22;8250;52.426;9.450;2022-09-30T13:59:17;17.70;97.00
16285;DHT22;8250;52.426;9.450;2022-09-30T14:02:12;17.90;97.80
16285;DHT22;8250;52.426;9.450;2022-09-30T14:04:59;18.00;97.10
16285;DHT22;8250;52.426;9.450;2022-09-30T14:07:39;17.90;96.80
16285;DHT22;8250;52.426;9.450;2022-09-30T14:10:24;17.90;97.40
16285;DHT22;8250;52.426;9.450;2022-09-30T14:13:05;17.90;97.80
16285;DHT22;8250;52.426;9.450;2022-09-30T14:21:40;18.00;95.80
16285;DHT22;8250;52.426;9.450;2022-09-30T14:24:11;18.00;95.00
16285;DHT22;8250;52.426;9.450;2022-09-30T14:29:52;18.20;95.80
16285;DHT22;8250;52.426;9.450;2022-09-30T14:32:26;18.20;95.50
16285;DHT22;8250;52.426;9.450;2022-09-30T14:34:54;18.20;95.80
16285;DHT22;8250;52.426;9.450;2022-09-30T14:37:26;18.20;95.10
16285;DHT22;8250;52.426;9.450;2022-09-30T14:39:54;18.10;95.00
16285;DHT22;8250;52.426;9.450;2022-09-30T14:42:25;18.00;94.80
16285;DHT22;8250;52.426;9.450;2022-09-30T14:44:55;18.00;94.90
16285;DHT22;8250;52.426;9.450;2022-09-30T14:47:30;18.00;94.80
16285;DHT22;8250;52.426;9.450;2022-09-30T14:49:59;18.00;94.60
16285;DHT22;8250;52.426;9.450;2022-09-30T14:52:42;18.00;94.50
16285;DHT22;8250;52.426;9.450;2022-09-30T14:55:22;18.00;94.60
16285;DHT22;8250;52.426;9.450;2022-09-30T14:57:50;17.90;95.10
16285;DHT22;8250;52.426;9.450;2022-09-30T15:00:35;18.00;94.50
16285;DHT22;8250;52.426;9.450;2022-09-30T15:03:02;18.00;94.10
16285;DHT22;8250;52.426;9.450;2022-09-30T15:05:35;18.00;94.00
16285;DHT22;8250;52.426;9.450;2022-09-30T15:08:09;18.00;93.10
16285;DHT22;8250;52.426;9.450;2022-09-30T15:10:36;18.00;93.20
16285;DHT22;8250;52.426;9.450;2022-09-30T15:13:08;17.80;93.20
16285;DHT22;8250;52.426;9.450;2022-09-30T15:15:36;17.80;93.00
16285;DHT22;8250;52.426;9.450;2022-09-30T15:18:24;17.90;93.20
16285;DHT22;8250;52.426;9.450;2022-09-30T15:20:53;17.90;93.00
16285;DHT22;8250;52.426;9.450;2022-09-30T15:23:25;17.90;93.20
16285;DHT22;8250;52.426;9.450;2022-09-30T15:25:53;17.80;92.60
16285;DHT22;8250;52.426;9.450;2022-09-30T15:28:20;17.80;93.50
16285;DHT22;8250;52.426;9.450;2022-09-30T15:30:47;17.60;93.70
16285;DHT22;8250;52.426;9.450;2022-09-30T15:33:19;17.60;93.70
16285;DHT22;8250;52.426;9.450;2022-09-30T15:35:48;17.60;94.70
16285;DHT22;8250;52.426;9.450;2022-09-30T15:38:19;17.60;94.70
16285;DHT22;8250;52.426;9.450;2022-09-30T15:40:51;17.60;94.80
16285;DHT22;8250;52.426;9.450;2022-09-30T15:43:32;17.50;95.40
16285;DHT22;8250;52.426;9.450;2022-09-30T15:46:15;17.50;95.40
16285;DHT22;8250;52.426;9.450;2022-09-30T15:48:43;17.50;95.40
16285;DHT22;8250;52.426;9.450;2022-09-30T15:51:29;17.50;95.30
16285;DHT22;8250;52.426;9.450;2022-09-30T15:53:57;17.40;95.30
16285;DHT22;8250;52.426;9.450;2022-09-30T15:56:30;17.30;96.00
16285;DHT22;8250;52.426;9.450;2022-09-30T15:59:00;17.40;96.20
16285;DHT22;8250;52.426;9.450;2022-09-30T16:01:33;17.30;96.30
16285;DHT22;8250;52.426;9.450;2022-09-30T16:04:03;17.30;96.50
16285;DHT22;8250;52.426;9.450;2022-09-30T16:06:36;17.30;97.10
16285;DHT22;8250;52.426;9.450;2022-09-30T16:09:18;17.20;96.80
16285;DHT22;8250;52.426;9.450;2022-09-30T16:11:56;17.10;96.80
16285;DHT22;8250;52.426;9.450;2022-09-30T16:14:26;17.10;97.00
16285;DHT22;8250;52.426;9.450;2022-09-30T16:16:55;17.10;97.80
16285;DHT22;8250;52.426;9.450;2022-09-30T16:19:23;17.10;97.90
16285;DHT22;8250;52.426;9.450;2022-09-30T16:21:51;17.00;97.50
16285;DHT22;8250;52.426;9.450;2022-09-30T16:24:45;17.00;98.10
16285;DHT22;8250;52.426;9.450;2022-09-30T16:27:29;17.00;98.90
16285;DHT22;8250;52.426;9.450;2022-09-30T16:29:58;16.90;99.90
16285;DHT22;8250;52.426;9.450;2022-09-30T16:32:37;16.80;99.60
16285;DHT22;8250;52.426;9.450;2022-09-30T16:35:05;16.80;99.90
16285;DHT22;8250;52.426;9.450;2022-09-30T16:37:33;16.70;99.90
16285;DHT22;8250;52.426;9.450;2022-09-30T16:40:08;16.60;99.90
16285;DHT22;8250;52.426;9.450;2022-09-30T16:42:37;16.50;99.90
16285;DHT22;8250;52.426;9.450;2022-09-30T16:45:04;16.50;99.90
16285;DHT22;8250;52.426;9.450;2022-09-30T16:47:31;16.30;99.90
16285;DHT22;8250;52.426;9.450;2022-09-30T16:49:59;16.30;99.90
16285;DHT22;8250;52.426;9.450;2022-09-30T16:52:25;16.10;99.90